sensor_id;sensor_type;location;lat;lon;timestamp;pressure;altitude;pressure_sealevel;temperature;humidity
19795;BME280;10057;59.402;17.866;2022-12-18T00:01:31;101885.88;;;-0.90;81.86
19795;BME280;10057;59.402;17.866;2022-12-18T00:04:01;101885.06;;;-0.88;82.34
19795;BME280;10057;59.402;17.866;2022-12-18T00:06:29;101883.34;;;-0.87;82.27
19795;BME280;10057;59.402;17.866;2022-12-18T00:08:57;101877.28;;;-0.86;82.03
19795;BME280;10057;59.402;17.866;2022-12-18T00:11:37;101886.03;;;-0.84;82.07
19795;BME280;10057;59.402;17.866;2022-12-18T00:14:03;101871.28;;;-0.84;81.53
19795;BME280;10057;59.402;17.866;2022-12-18T00:16:33;101877.38;;;-0.83;81.89
19795;BME280;10057;59.402;17.866;2022-12-18T00:19:04;101882.66;;;-0.82;81.74
19795;BME280;10057;59.402;17.866;2022-12-18T00:21:32;101882.66;;;-0.80;82.23
19795;BME280;10057;59.402;17.866;2022-12-18T00:23:59;101883.63;;;-0.78;82.37
19795;BME280;10057;59.402;17.866;2022-12-18T00:26:38;101879.28;;;-0.78;82.11
19795;BME280;10057;59.402;17.866;2022-12-18T00:29:25;101875.81;;;-0.77;82.06
19795;BME280;10057;59.402;17.866;2022-12-18T00:31:52;101868.88;;;-0.76;82.26
19795;BME280;10057;59.402;17.866;2022-12-18T00:34:19;101874.09;;;-0.76;82.18
19795;BME280;10057;59.402;17.866;2022-12-18T00:37:03;101866.28;;;-0.76;82.17
19795;BME280;10057;59.402;17.866;2022-12-18T00:39:29;101864.53;;;-0.76;82.36
19795;BME280;10057;59.402;17.866;2022-12-18T00:41:56;101863.75;;;-0.73;82.01
19795;BME280;10057;59.402;17.866;2022-12-18T00:44:48;101862.00;;;-0.74;82.12
19795;BME280;10057;59.402;17.866;2022-12-18T00:47:14;101852.47;;;-0.72;82.39
19795;BME280;10057;59.402;17.866;2022-12-18T00:49:44;101862.91;;;-0.72;82.03
19795;BME280;10057;59.402;17.866;2022-12-18T00:52:12;101857.75;;;-0.70;82.13
19795;BME280;10057;59.402;17.866;2022-12-18T00:54:38;101862.97;;;-0.70;82.13
19795;BME280;10057;59.402;17.866;2022-12-18T00:57:05;101849.06;;;-0.69;82.05
19795;BME280;10057;59.402;17.866;2022-12-18T00:59:32;101874.34;;;-0.67;82.39
19795;BME280;10057;59.402;17.866;2022-12-18T01:01:58;101870.00;;;-0.66;82.33
19795;BME280;10057;59.402;17.866;2022-12-18T01:04:25;101872.69;;;-0.65;82.02
19795;BME280;10057;59.402;17.866;2022-12-18T01:06:52;101889.22;;;-0.63;82.36
19795;BME280;10057;59.402;17.866;2022-12-18T01:09:18;101883.16;;;-0.62;82.45
19795;BME280;10057;59.402;17.866;2022-12-18T01:11:48;101893.59;;;-0.62;82.40
19795;BME280;10057;59.402;17.866;2022-12-18T01:14:15;101895.38;;;-0.61;82.42
19795;BME280;10057;59.402;17.866;2022-12-18T01:16:42;101880.56;;;-0.62;82.21
19795;BME280;10057;59.402;17.866;2022-12-18T01:19:09;101886.69;;;-0.60;82.48
19795;BME280;10057;59.402;17.866;2022-12-18T01:21:35;101894.56;;;-0.58;82.34
19795;BME280;10057;59.402;17.866;2022-12-18T01:24:05;101883.31;;;-0.57;82.52
19795;BME280;10057;59.402;17.866;2022-12-18T01:26:32;101876.34;;;-0.57;82.60
19795;BME280;10057;59.402;17.866;2022-12-18T01:29:08;101878.97;;;-0.57;82.54
19795;BME280;10057;59.402;17.866;2022-12-18T01:31:34;101877.28;;;-0.55;82.31
19795;BME280;10057;59.402;17.866;2022-12-18T01:34:03;101871.22;;;-0.54;82.57
19795;BME280;10057;59.402;17.866;2022-12-18T01:36:35;101866.09;;;-0.51;82.51
19795;BME280;10057;59.402;17.866;2022-12-18T01:39:08;101864.38;;;-0.50;82.36
19795;BME280;10057;59.402;17.866;2022-12-18T01:41:36;101860.06;;;-0.48;82.64
19795;BME280;10057;59.402;17.866;2022-12-18T01:49:48;101855.84;;;-0.44;82.45
19795;BME280;10057;59.402;17.866;2022-12-18T01:52:16;101852.38;;;-0.43;82.25
19795;BME280;10057;59.402;17.866;2022-12-18T01:54:44;101852.38;;;-0.43;82.59
19795;BME280;10057;59.402;17.866;2022-12-18T01:57:11;101855.94;;;-0.40;82.66
19795;BME280;10057;59.402;17.866;2022-12-18T01:59:39;101857.69;;;-0.39;82.56
19795;BME280;10057;59.402;17.866;2022-12-18T02:02:07;101868.19;;;-0.37;82.42
19795;BME280;10057;59.402;17.866;2022-12-18T02:04:35;101856.91;;;-0.36;82.45
19795;BME280;10057;59.402;17.866;2022-12-18T02:10:00;101858.63;;;-0.37;82.58
19795;BME280;10057;59.402;17.866;2022-12-18T02:12:57;101851.69;;;-0.36;82.84
19795;BME280;10057;59.402;17.866;2022-12-18T02:16:04;101856.91;;;-0.35;82.50
19795;BME280;10057;59.402;17.866;2022-12-18T02:18:36;101849.97;;;-0.34;82.73
19795;BME280;10057;59.402;17.866;2022-12-18T02:24:33;101847.38;;;-0.34;82.71
19795;BME280;10057;59.402;17.866;2022-12-18T02:27:05;101855.19;;;-0.34;82.59
19795;BME280;10057;59.402;17.866;2022-12-18T02:29:42;101858.72;;;-0.32;82.60
19795;BME280;10057;59.402;17.866;2022-12-18T02:32:14;101850.91;;;-0.32;82.54
19795;BME280;10057;59.402;17.866;2022-12-18T02:34:46;101844.81;;;-0.33;82.20
19795;BME280;10057;59.402;17.866;2022-12-18T02:37:16;101852.66;;;-0.31;82.48
19795;BME280;10057;59.402;17.866;2022-12-18T02:39:46;101864.00;;;-0.31;82.43
19795;BME280;10057;59.402;17.866;2022-12-18T02:42:14;101845.78;;;-0.29;82.39
19795;BME280;10057;59.402;17.866;2022-12-18T02:44:47;101855.34;;;-0.28;82.67
19795;BME280;10057;59.402;17.866;2022-12-18T02:47:17;101834.47;;;-0.28;82.56
19795;BME280;10057;59.402;17.866;2022-12-18T02:55:30;101840.56;;;-0.29;82.41
19795;BME280;10057;59.402;17.866;2022-12-18T02:58:15;101838.81;;;-0.30;82.32
19795;BME280;10057;59.402;17.866;2022-12-18T03:00:50;101839.63;;;-0.31;82.49
19795;BME280;10057;59.402;17.866;2022-12-18T03:03:25;101834.38;;;-0.33;82.30
19795;BME280;10057;59.402;17.866;2022-12-18T03:06:02;101833.50;;;-0.33;82.33
19795;BME280;10057;59.402;17.866;2022-12-18T03:08:43;101826.56;;;-0.33;82.27
19795;BME280;10057;59.402;17.866;2022-12-18T03:11:12;101819.59;;;-0.34;82.27
19795;BME280;10057;59.402;17.866;2022-12-18T03:13:46;101819.59;;;-0.34;82.42
19795;BME280;10057;59.402;17.866;2022-12-18T03:16:18;101820.47;;;-0.33;82.50
19795;BME280;10057;59.402;17.866;2022-12-18T03:18:52;101823.06;;;-0.33;82.37
19795;BME280;10057;59.402;17.866;2022-12-18T03:21:25;101814.31;;;-0.35;82.56
19795;BME280;10057;59.402;17.866;2022-12-18T03:23:57;101812.56;;;-0.36;82.51
19795;BME280;10057;59.402;17.866;2022-12-18T03:26:25;101812.56;;;-0.36;82.36
19795;BME280;10057;59.402;17.866;2022-12-18T03:28:58;101812.56;;;-0.36;82.43
19795;BME280;10057;59.402;17.866;2022-12-18T03:31:28;101811.72;;;-0.35;82.48
19795;BME280;10057;59.402;17.866;2022-12-18T03:34:01;101813.41;;;-0.37;82.34
19795;BME280;10057;59.402;17.866;2022-12-18T03:36:31;101809.97;;;-0.36;82.46
19795;BME280;10057;59.402;17.866;2022-12-18T03:38:58;101823.84;;;-0.37;82.23
19795;BME280;10057;59.402;17.866;2022-12-18T03:41:32;101819.44;;;-0.38;82.44
19795;BME280;10057;59.402;17.866;2022-12-18T03:47:13;101812.50;;;-0.38;82.40
19795;BME280;10057;59.402;17.866;2022-12-18T03:52:42;101807.19;;;-0.42;82.54
19795;BME280;10057;59.402;17.866;2022-12-18T03:55:12;101818.47;;;-0.43;82.48
19795;BME280;10057;59.402;17.866;2022-12-18T03:57:41;101815.81;;;-0.45;82.11
19795;BME280;10057;59.402;17.866;2022-12-18T04:00:11;101808.91;;;-0.44;82.38
19795;BME280;10057;59.402;17.866;2022-12-18T04:02:45;101812.31;;;-0.45;82.43
19795;BME280;10057;59.402;17.866;2022-12-18T04:05:15;101814.94;;;-0.45;82.43
19795;BME280;10057;59.402;17.866;2022-12-18T04:07:43;101809.63;;;-0.49;81.85
19795;BME280;10057;59.402;17.866;2022-12-18T04:10:12;101818.41;;;-0.46;82.22
19795;BME280;10057;59.402;17.866;2022-12-18T04:12:39;101819.25;;;-0.47;82.26
19795;BME280;10057;59.402;17.866;2022-12-18T04:15:08;101812.25;;;-0.49;82.34
19795;BME280;10057;59.402;17.866;2022-12-18T04:17:35;101810.50;;;-0.48;82.33
19795;BME280;10057;59.402;17.866;2022-12-18T04:20:02;101807.03;;;-0.49;81.90
19795;BME280;10057;59.402;17.866;2022-12-18T04:22:29;101814.84;;;-0.49;82.33
19795;BME280;10057;59.402;17.866;2022-12-18T04:24:56;101814.81;;;-0.50;82.24
19795;BME280;10057;59.402;17.866;2022-12-18T04:27:22;101825.25;;;-0.50;82.03
19795;BME280;10057;59.402;17.866;2022-12-18T04:29:49;101824.38;;;-0.51;82.21
19795;BME280;10057;59.402;17.866;2022-12-18T04:32:16;101816.56;;;-0.51;82.25
19795;BME280;10057;59.402;17.866;2022-12-18T04:34:42;101815.69;;;-0.51;82.49
19795;BME280;10057;59.402;17.866;2022-12-18T04:37:09;101815.72;;;-0.50;82.21
19795;BME280;10057;59.402;17.866;2022-12-18T04:39:36;101808.75;;;-0.51;82.14
19795;BME280;10057;59.402;17.866;2022-12-18T04:42:02;101804.41;;;-0.50;82.03
19795;BME280;10057;59.402;17.866;2022-12-18T04:44:29;101793.09;;;-0.51;82.23
19795;BME280;10057;59.402;17.866;2022-12-18T04:46:56;101802.66;;;-0.51;82.22
19795;BME280;10057;59.402;17.866;2022-12-18T04:49:23;101801.75;;;-0.52;81.91
19795;BME280;10057;59.402;17.866;2022-12-18T04:51:49;101793.00;;;-0.54;81.91
19795;BME280;10057;59.402;17.866;2022-12-18T04:54:16;101795.63;;;-0.54;81.67
19795;BME280;10057;59.402;17.866;2022-12-18T04:56:43;101785.19;;;-0.54;82.14
19795;BME280;10057;59.402;17.866;2022-12-18T04:59:09;101772.16;;;-0.54;82.00
19795;BME280;10057;59.402;17.866;2022-12-18T05:01:36;101775.63;;;-0.55;82.04
19795;BME280;10057;59.402;17.866;2022-12-18T05:04:03;101778.16;;;-0.56;81.85
19795;BME280;10057;59.402;17.866;2022-12-18T05:06:30;101767.72;;;-0.58;81.82
19795;BME280;10057;59.402;17.866;2022-12-18T05:08:57;101774.63;;;-0.58;81.82
19795;BME280;10057;59.402;17.866;2022-12-18T05:11:24;101770.28;;;-0.59;81.95
19795;BME280;10057;59.402;17.866;2022-12-18T05:13:50;101764.16;;;-0.61;82.02
19795;BME280;10057;59.402;17.866;2022-12-18T05:16:17;101770.25;;;-0.61;81.76
19795;BME280;10057;59.402;17.866;2022-12-18T05:18:45;101765.03;;;-0.61;82.07
19795;BME280;10057;59.402;17.866;2022-12-18T05:21:11;101764.19;;;-0.60;81.79
19795;BME280;10057;59.402;17.866;2022-12-18T05:23:38;101763.38;;;-0.57;82.15
19795;BME280;10057;59.402;17.866;2022-12-18T05:26:06;101766.00;;;-0.57;81.84
19795;BME280;10057;59.402;17.866;2022-12-18T05:28:35;101766.00;;;-0.57;81.99
19795;BME280;10057;59.402;17.866;2022-12-18T05:31:03;101752.97;;;-0.57;82.15
19795;BME280;10057;59.402;17.866;2022-12-18T05:33:33;101767.75;;;-0.56;81.88
19795;BME280;10057;59.402;17.866;2022-12-18T05:36:01;101766.00;;;-0.56;81.96
19795;BME280;10057;59.402;17.866;2022-12-18T05:38:30;101752.16;;;-0.55;81.80
19795;BME280;10057;59.402;17.866;2022-12-18T05:41:00;101746.09;;;-0.54;81.93
19795;BME280;10057;59.402;17.866;2022-12-18T05:43:27;101745.31;;;-0.50;82.03
19795;BME280;10057;59.402;17.866;2022-12-18T05:45:54;101758.34;;;-0.50;82.10
19795;BME280;10057;59.402;17.866;2022-12-18T05:48:21;101745.38;;;-0.46;81.95
19795;BME280;10057;59.402;17.866;2022-12-18T05:50:49;101737.56;;;-0.46;81.95
19795;BME280;10057;59.402;17.866;2022-12-18T05:53:18;101741.94;;;-0.45;82.09
19795;BME280;10057;59.402;17.866;2022-12-18T05:55:46;101751.53;;;-0.44;82.00
19795;BME280;10057;59.402;17.866;2022-12-18T05:58:14;101742.00;;;-0.42;82.19
19795;BME280;10057;59.402;17.866;2022-12-18T06:00:43;101748.16;;;-0.40;81.88
19795;BME280;10057;59.402;17.866;2022-12-18T06:03:11;101752.53;;;-0.38;81.90
19795;BME280;10057;59.402;17.866;2022-12-18T06:05:44;101744.75;;;-0.36;82.04
19795;BME280;10057;59.402;17.866;2022-12-18T06:08:12;101737.84;;;-0.34;81.77
19795;BME280;10057;59.402;17.866;2022-12-18T06:10:40;101737.00;;;-0.33;81.81
19795;BME280;10057;59.402;17.866;2022-12-18T06:13:07;101730.94;;;-0.34;81.92
19795;BME280;10057;59.402;17.866;2022-12-18T06:15:36;101738.75;;;-0.32;81.81
19795;BME280;10057;59.402;17.866;2022-12-18T06:18:03;101725.72;;;-0.32;81.79
19795;BME280;10057;59.402;17.866;2022-12-18T06:20:29;101733.59;;;-0.31;81.88
19795;BME280;10057;59.402;17.866;2022-12-18T06:22:59;101729.25;;;-0.30;81.66
19795;BME280;10057;59.402;17.866;2022-12-18T06:25:26;101724.94;;;-0.30;81.80
19795;BME280;10057;59.402;17.866;2022-12-18T06:27:55;101723.16;;;-0.31;82.00
19795;BME280;10057;59.402;17.866;2022-12-18T06:30:25;101724.88;;;-0.31;81.75
19795;BME280;10057;59.402;17.866;2022-12-18T06:32:52;101724.06;;;-0.30;81.83
19795;BME280;10057;59.402;17.866;2022-12-18T06:35:22;101718.84;;;-0.30;81.65
19795;BME280;10057;59.402;17.866;2022-12-18T06:37:49;101716.22;;;-0.30;81.46
19795;BME280;10057;59.402;17.866;2022-12-18T06:40:19;101717.03;;;-0.31;81.54
19795;BME280;10057;59.402;17.866;2022-12-18T06:42:49;101719.72;;;-0.30;81.74
19795;BME280;10057;59.402;17.866;2022-12-18T06:45:16;101730.16;;;-0.28;81.75
19795;BME280;10057;59.402;17.866;2022-12-18T06:47:43;101727.56;;;-0.28;81.26
19795;BME280;10057;59.402;17.866;2022-12-18T06:50:11;101726.72;;;-0.27;81.79
19795;BME280;10057;59.402;17.866;2022-12-18T06:52:38;101730.22;;;-0.25;81.74
19795;BME280;10057;59.402;17.866;2022-12-18T06:55:10;101731.97;;;-0.24;81.67
19795;BME280;10057;59.402;17.866;2022-12-18T06:57:38;101731.97;;;-0.24;81.64
19795;BME280;10057;59.402;17.866;2022-12-18T07:00:05;101729.38;;;-0.24;81.59
19795;BME280;10057;59.402;17.866;2022-12-18T07:02:32;101731.97;;;-0.24;81.75
19795;BME280;10057;59.402;17.866;2022-12-18T07:05:00;101735.44;;;-0.25;81.45
19795;BME280;10057;59.402;17.866;2022-12-18T07:07:34;101738.06;;;-0.25;81.52
19795;BME280;10057;59.402;17.866;2022-12-18T07:10:01;101741.53;;;-0.26;81.40
19795;BME280;10057;59.402;17.866;2022-12-18T07:12:28;101744.13;;;-0.26;81.65
19795;BME280;10057;59.402;17.866;2022-12-18T07:14:55;101746.75;;;-0.26;81.85
19795;BME280;10057;59.402;17.866;2022-12-18T07:17:21;101739.78;;;-0.27;81.40
19795;BME280;10057;59.402;17.866;2022-12-18T07:19:48;101737.09;;;-0.29;81.64
19795;BME280;10057;59.402;17.866;2022-12-18T07:22:15;101745.81;;;-0.28;81.74
19795;BME280;10057;59.402;17.866;2022-12-18T07:24:41;101745.81;;;-0.28;81.77
19795;BME280;10057;59.402;17.866;2022-12-18T07:27:08;101744.97;;;-0.27;81.69
19795;BME280;10057;59.402;17.866;2022-12-18T07:29:35;101730.16;;;-0.28;81.90
19795;BME280;10057;59.402;17.866;2022-12-18T07:32:03;101735.38;;;-0.28;81.58
19795;BME280;10057;59.402;17.866;2022-12-18T07:34:30;101731.94;;;-0.27;81.56
19795;BME280;10057;59.402;17.866;2022-12-18T07:36:57;101741.53;;;-0.26;81.61
19795;BME280;10057;59.402;17.866;2022-12-18T07:39:24;101730.22;;;-0.27;81.77
19795;BME280;10057;59.402;17.866;2022-12-18T07:41:50;101736.38;;;-0.23;81.59
19795;BME280;10057;59.402;17.866;2022-12-18T07:44:35;101735.53;;;-0.22;81.71
19795;BME280;10057;59.402;17.866;2022-12-18T07:47:03;101731.19;;;-0.21;81.54
19795;BME280;10057;59.402;17.866;2022-12-18T07:49:36;101728.56;;;-0.21;81.50
19795;BME280;10057;59.402;17.866;2022-12-18T07:52:03;101736.41;;;-0.21;81.41
19795;BME280;10057;59.402;17.866;2022-12-18T07:54:30;101739.00;;;-0.21;81.88
19795;BME280;10057;59.402;17.866;2022-12-18T07:56:57;101738.19;;;-0.20;81.37
19795;BME280;10057;59.402;17.866;2022-12-18T07:59:23;101750.38;;;-0.18;81.55
19795;BME280;10057;59.402;17.866;2022-12-18T08:01:50;101754.81;;;-0.15;81.73
19795;BME280;10057;59.402;17.866;2022-12-18T08:04:17;101749.59;;;-0.14;81.62
19795;BME280;10057;59.402;17.866;2022-12-18T08:06:44;101750.53;;;-0.12;81.69
19795;BME280;10057;59.402;17.866;2022-12-18T08:09:13;101747.13;;;-0.09;81.62
19795;BME280;10057;59.402;17.866;2022-12-18T08:11:40;101738.50;;;-0.07;81.72
19795;BME280;10057;59.402;17.866;2022-12-18T08:14:07;101728.94;;;-0.06;81.76
19795;BME280;10057;59.402;17.866;2022-12-18T08:16:34;101724.59;;;-0.04;81.82
19795;BME280;10057;59.402;17.866;2022-12-18T08:19:01;101722.06;;;-0.01;81.66
19795;BME280;10057;59.402;17.866;2022-12-18T08:21:29;101711.69;;;0.01;81.70
19795;BME280;10057;59.402;17.866;2022-12-18T08:23:58;101714.38;;;0.04;81.82
19795;BME280;10057;59.402;17.866;2022-12-18T08:26:27;101710.09;;;0.07;81.45
19795;BME280;10057;59.402;17.866;2022-12-18T08:28:56;101716.25;;;0.11;81.62
19795;BME280;10057;59.402;17.866;2022-12-18T08:31:24;101720.69;;;0.15;81.78
19795;BME280;10057;59.402;17.866;2022-12-18T08:33:54;101716.34;;;0.17;81.85
19795;BME280;10057;59.402;17.866;2022-12-18T08:36:23;101725.97;;;0.19;81.75
19795;BME280;10057;59.402;17.866;2022-12-18T08:38:53;101714.81;;;0.25;81.52
19795;BME280;10057;59.402;17.866;2022-12-18T08:41:20;101714.88;;;0.28;81.63
19795;BME280;10057;59.402;17.866;2022-12-18T08:43:47;101717.53;;;0.31;81.52
19795;BME280;10057;59.402;17.866;2022-12-18T08:46:37;101715.00;;;0.34;81.71
19795;BME280;10057;59.402;17.866;2022-12-18T08:49:07;101715.00;;;0.36;81.64
19795;BME280;10057;59.402;17.866;2022-12-18T08:51:34;101712.41;;;0.37;81.78
19795;BME280;10057;59.402;17.866;2022-12-18T08:54:04;101721.19;;;0.41;81.65
19795;BME280;10057;59.402;17.866;2022-12-18T08:56:32;101716.09;;;0.45;81.51
19795;BME280;10057;59.402;17.866;2022-12-18T08:59:08;101705.66;;;0.47;81.69
19795;BME280;10057;59.402;17.866;2022-12-18T09:01:45;101708.38;;;0.52;81.73
19795;BME280;10057;59.402;17.866;2022-12-18T09:04:13;101711.06;;;0.56;81.61
19795;BME280;10057;59.402;17.866;2022-12-18T09:06:40;101709.38;;;0.58;81.53
19795;BME280;10057;59.402;17.866;2022-12-18T09:09:07;101709.41;;;0.61;81.76
19795;BME280;10057;59.402;17.866;2022-12-18T09:11:34;101708.59;;;0.64;81.66
19795;BME280;10057;59.402;17.866;2022-12-18T09:14:01;101698.22;;;0.67;81.39
19795;BME280;10057;59.402;17.866;2022-12-18T09:16:29;101706.09;;;0.70;81.59
19795;BME280;10057;59.402;17.866;2022-12-18T09:18:59;101712.25;;;0.72;81.73
19795;BME280;10057;59.402;17.866;2022-12-18T09:21:28;101697.47;;;0.74;81.65
19795;BME280;10057;59.402;17.866;2022-12-18T09:23:55;101693.16;;;0.76;81.72
19795;BME280;10057;59.402;17.866;2022-12-18T09:26:23;101685.34;;;0.78;81.77
19795;BME280;10057;59.402;17.866;2022-12-18T09:28:50;101685.41;;;0.81;81.59
19795;BME280;10057;59.402;17.866;2022-12-18T09:31:20;101686.28;;;0.81;81.83
19795;BME280;10057;59.402;17.866;2022-12-18T09:33:47;101684.56;;;0.83;81.62
19795;BME280;10057;59.402;17.866;2022-12-18T09:36:17;101677.63;;;0.85;81.99
19795;BME280;10057;59.402;17.866;2022-12-18T09:38:47;101661.94;;;0.85;81.83
19795;BME280;10057;59.402;17.866;2022-12-18T09:44:22;101658.56;;;0.91;81.93
19795;BME280;10057;59.402;17.866;2022-12-18T09:47:05;101656.88;;;0.94;81.78
19795;BME280;10057;59.402;17.866;2022-12-18T09:49:42;101660.41;;;0.97;81.84
19795;BME280;10057;59.402;17.866;2022-12-18T09:52:21;101647.38;;;0.98;81.79
19795;BME280;10057;59.402;17.866;2022-12-18T09:55:03;101631.72;;;1.00;81.73
19795;BME280;10057;59.402;17.866;2022-12-18T09:57:33;101644.84;;;1.03;81.65
19795;BME280;10057;59.402;17.866;2022-12-18T10:00:28;101630.94;;;1.05;81.86
19795;BME280;10057;59.402;17.866;2022-12-18T10:03:11;101634.41;;;1.06;81.61
19795;BME280;10057;59.402;17.866;2022-12-18T10:12:16;101637.13;;;1.10;81.72
19795;BME280;10057;59.402;17.866;2022-12-18T10:20:15;101614.59;;;1.18;81.55
19795;BME280;10057;59.402;17.866;2022-12-18T10:23:10;101617.25;;;1.22;81.77
19795;BME280;10057;59.402;17.866;2022-12-18T10:26:01;101608.56;;;1.24;81.91
19795;BME280;10057;59.402;17.866;2022-12-18T10:28:33;101613.84;;;1.27;81.85
19795;BME280;10057;59.402;17.866;2022-12-18T10:31:26;101623.44;;;1.30;81.72
19795;BME280;10057;59.402;17.866;2022-12-18T10:33:54;101609.56;;;1.32;81.84
19795;BME280;10057;59.402;17.866;2022-12-18T10:36:23;101620.06;;;1.34;81.96
19795;BME280;10057;59.402;17.866;2022-12-18T10:38:51;101614.84;;;1.35;81.85
19795;BME280;10057;59.402;17.866;2022-12-18T10:43:47;101618.41;;;1.43;81.63
19795;BME280;10057;59.402;17.866;2022-12-18T10:46:19;101615.84;;;1.47;81.73
19795;BME280;10057;59.402;17.866;2022-12-18T10:48:51;101625.50;;;1.49;81.81
19795;BME280;10057;59.402;17.866;2022-12-18T10:51:30;101636.00;;;1.51;81.64
19795;BME280;10057;59.402;17.866;2022-12-18T10:54:01;101627.28;;;1.52;81.66
19795;BME280;10057;59.402;17.866;2022-12-18T10:56:34;101622.06;;;1.53;81.73
19795;BME280;10057;59.402;17.866;2022-12-18T10:59:08;101620.31;;;1.54;81.88
19795;BME280;10057;59.402;17.866;2022-12-18T11:01:54;101621.22;;;1.56;81.84
19795;BME280;10057;59.402;17.866;2022-12-18T11:04:27;101622.13;;;1.58;81.85
19795;BME280;10057;59.402;17.866;2022-12-18T11:07:06;101619.53;;;1.58;81.83
19795;BME280;10057;59.402;17.866;2022-12-18T11:09:39;101623.88;;;1.60;81.61
19795;BME280;10057;59.402;17.866;2022-12-18T11:12:18;101636.09;;;1.60;81.97
19795;BME280;10057;59.402;17.866;2022-12-18T11:14:50;101637.00;;;1.62;81.90
19795;BME280;10057;59.402;17.866;2022-12-18T11:17:33;101637.88;;;1.61;81.82
19795;BME280;10057;59.402;17.866;2022-12-18T11:20:04;101638.75;;;1.61;82.00
19795;BME280;10057;59.402;17.866;2022-12-18T11:22:35;101622.19;;;1.62;81.97
19795;BME280;10057;59.402;17.866;2022-12-18T11:25:18;101612.59;;;1.63;81.99
19795;BME280;10057;59.402;17.866;2022-12-18T11:28:01;101607.38;;;1.63;81.54
19795;BME280;10057;59.402;17.866;2022-12-18T11:30:31;101610.84;;;1.63;82.03
19795;BME280;10057;59.402;17.866;2022-12-18T11:33:09;101610.03;;;1.64;81.72
19795;BME280;10057;59.402;17.866;2022-12-18T11:36:02;101618.75;;;1.66;81.71
19795;BME280;10057;59.402;17.866;2022-12-18T11:38:36;101622.25;;;1.67;81.77
19795;BME280;10057;59.402;17.866;2022-12-18T11:41:12;101622.25;;;1.67;81.86
19795;BME280;10057;59.402;17.866;2022-12-18T11:43:50;101618.78;;;1.68;81.99
19795;BME280;10057;59.402;17.866;2022-12-18T11:46:27;101615.25;;;1.66;82.10
19795;BME280;10057;59.402;17.866;2022-12-18T11:51:53;101617.09;;;1.72;82.04
19795;BME280;10057;59.402;17.866;2022-12-18T11:54:21;101605.75;;;1.73;81.95
19795;BME280;10057;59.402;17.866;2022-12-18T11:56:56;101607.50;;;1.74;81.91
19795;BME280;10057;59.402;17.866;2022-12-18T12:13:35;101605.00;;;1.84;81.79
19795;BME280;10057;59.402;17.866;2022-12-18T12:16:21;101605.06;;;1.86;82.03
19795;BME280;10057;59.402;17.866;2022-12-18T12:19:02;101615.53;;;1.87;82.32
19795;BME280;10057;59.402;17.866;2022-12-18T12:21:42;101612.06;;;1.88;81.96
19795;BME280;10057;59.402;17.866;2022-12-18T12:27:38;101631.25;;;1.90;81.53
19795;BME280;10057;59.402;17.866;2022-12-18T12:30:20;101620.84;;;1.92;82.14
19795;BME280;10057;59.402;17.866;2022-12-18T12:35:31;101617.38;;;1.96;82.26
19795;BME280;10057;59.402;17.866;2022-12-18T12:40:32;101617.47;;;2.04;81.76
19795;BME280;10057;59.402;17.866;2022-12-18T12:48:34;101623.66;;;2.09;82.11
19795;BME280;10057;59.402;17.866;2022-12-18T12:51:08;101627.16;;;2.11;82.16
19795;BME280;10057;59.402;17.866;2022-12-18T12:53:37;101625.44;;;2.13;82.00
19795;BME280;10057;59.402;17.866;2022-12-18T12:56:07;101620.22;;;2.14;82.01
19795;BME280;10057;59.402;17.866;2022-12-18T13:01:49;101630.75;;;2.19;82.32
19795;BME280;10057;59.402;17.866;2022-12-18T13:05:12;101622.91;;;2.22;82.29
19795;BME280;10057;59.402;17.866;2022-12-18T13:07:54;101623.81;;;2.24;82.30
19795;BME280;10057;59.402;17.866;2022-12-18T13:10:31;101613.38;;;2.26;82.27
19795;BME280;10057;59.402;17.866;2022-12-18T13:15:30;101613.41;;;2.30;82.13
19795;BME280;10057;59.402;17.866;2022-12-18T13:20:39;101589.88;;;2.35;82.50
19795;BME280;10057;59.402;17.866;2022-12-18T13:23:28;101596.00;;;2.35;82.01
19795;BME280;10057;59.402;17.866;2022-12-18T13:34:26;101608.22;;;2.35;81.97
19795;BME280;10057;59.402;17.866;2022-12-18T13:37:42;101612.56;;;2.34;81.96
19795;BME280;10057;59.402;17.866;2022-12-18T13:39:43;101616.06;;;2.33;82.08
19795;BME280;10057;59.402;17.866;2022-12-18T13:44:57;101605.59;;;2.35;81.96
19795;BME280;10057;59.402;17.866;2022-12-18T13:47:33;101606.47;;;2.35;82.07
19795;BME280;10057;59.402;17.866;2022-12-18T13:50:10;101597.75;;;2.38;82.35
19795;BME280;10057;59.402;17.866;2022-12-18T13:52:37;101613.53;;;2.40;82.20
19795;BME280;10057;59.402;17.866;2022-12-18T13:55:14;101615.25;;;2.42;82.30
19795;BME280;10057;59.402;17.866;2022-12-18T13:57:42;101620.53;;;2.44;82.38
19795;BME280;10057;59.402;17.866;2022-12-18T14:02:48;101611.84;;;2.49;82.29
19795;BME280;10057;59.402;17.866;2022-12-18T14:05:30;101612.75;;;2.51;82.30
19795;BME280;10057;59.402;17.866;2022-12-18T14:08:06;101614.50;;;2.52;82.19
19795;BME280;10057;59.402;17.866;2022-12-18T14:10:35;101627.63;;;2.54;82.38
19795;BME280;10057;59.402;17.866;2022-12-18T14:13:38;101617.19;;;2.57;82.60
19795;BME280;10057;59.402;17.866;2022-12-18T14:16:14;101621.53;;;2.56;82.05
19795;BME280;10057;59.402;17.866;2022-12-18T14:18:53;101625.91;;;2.57;82.22
19795;BME280;10057;59.402;17.866;2022-12-18T14:21:37;101626.78;;;2.58;82.33
19795;BME280;10057;59.402;17.866;2022-12-18T14:26:35;101620.69;;;2.60;82.32
19795;BME280;10057;59.402;17.866;2022-12-18T14:29:21;101617.19;;;2.58;82.12
19795;BME280;10057;59.402;17.866;2022-12-18T14:32:19;101623.28;;;2.57;82.15
19795;BME280;10057;59.402;17.866;2022-12-18T14:34:51;101632.88;;;2.54;82.13
19795;BME280;10057;59.402;17.866;2022-12-18T14:37:22;101643.31;;;2.51;82.20
19795;BME280;10057;59.402;17.866;2022-12-18T14:40:00;101632.78;;;2.48;82.44
19795;BME280;10057;59.402;17.866;2022-12-18T14:42:36;101622.28;;;2.45;82.44